sensor_id;sensor_type;location;lat;lon;timestamp;P1;durP1;ratioP1;P2;durP2;ratioP2
16510;SDS011;8368;48.772;8.754;2023-12-07T00:01:25;7.30;;;5.20;;
16510;SDS011;8368;48.772;8.754;2023-12-07T00:03:51;8.97;;;6.37;;
16510;SDS011;8368;48.772;8.754;2023-12-07T00:06:16;6.67;;;5.47;;
16510;SDS011;8368;48.772;8.754;2023-12-07T00:08:42;6.63;;;5.20;;
16510;SDS011;8368;48.772;8.754;2023-12-07T00:11:07;6.17;;;5.37;;
16510;SDS011;8368;48.772;8.754;2023-12-07T00:13:33;7.67;;;5.53;;
16510;SDS011;8368;48.772;8.754;2023-12-07T00:15:58;7.13;;;5.30;;
16510;SDS011;8368;48.772;8.754;2023-12-07T00:18:24;8.30;;;5.43;;
16510;SDS011;8368;48.772;8.754;2023-12-07T00:20:49;8.13;;;5.10;;
16510;SDS011;8368;48.772;8.754;2023-12-07T00:23:15;8.17;;;5.13;;
16510;SDS011;8368;48.772;8.754;2023-12-07T00:25:40;8.50;;;5.07;;
16510;SDS011;8368;48.772;8.754;2023-12-07T00:28:06;9.20;;;4.93;;
16510;SDS011;8368;48.772;8.754;2023-12-07T00:30:31;6.93;;;5.00;;
16510;SDS011;8368;48.772;8.754;2023-12-07T00:32:58;7.83;;;4.80;;
16510;SDS011;8368;48.772;8.754;2023-12-07T00:35:24;5.50;;;4.63;;
16510;SDS011;8368;48.772;8.754;2023-12-07T00:37:49;16.07;;;8.87;;
16510;SDS011;8368;48.772;8.754;2023-12-07T00:40:15;13.03;;;7.60;;
16510;SDS011;8368;48.772;8.754;2023-12-07T00:42:41;8.43;;;6.03;;
16510;SDS011;8368;48.772;8.754;2023-12-07T00:45:06;11.40;;;6.27;;
16510;SDS011;8368;48.772;8.754;2023-12-07T00:47:32;10.13;;;6.60;;
16510;SDS011;8368;48.772;8.754;2023-12-07T00:49:57;10.13;;;7.13;;
16510;SDS011;8368;48.772;8.754;2023-12-07T00:52:23;9.27;;;5.47;;
16510;SDS011;8368;48.772;8.754;2023-12-07T00:54:48;8.50;;;5.17;;
16510;SDS011;8368;48.772;8.754;2023-12-07T00:57:14;10.17;;;6.10;;
16510;SDS011;8368;48.772;8.754;2023-12-07T00:59:40;9.50;;;5.40;;
16510;SDS011;8368;48.772;8.754;2023-12-07T01:02:05;7.67;;;5.23;;
16510;SDS011;8368;48.772;8.754;2023-12-07T01:04:31;9.60;;;5.07;;
16510;SDS011;8368;48.772;8.754;2023-12-07T01:06:58;7.67;;;4.90;;
16510;SDS011;8368;48.772;8.754;2023-12-07T01:09:23;8.37;;;5.30;;
16510;SDS011;8368;48.772;8.754;2023-12-07T01:11:49;8.10;;;5.30;;
16510;SDS011;8368;48.772;8.754;2023-12-07T01:14:15;6.70;;;5.60;;
16510;SDS011;8368;48.772;8.754;2023-12-07T01:16:42;10.17;;;5.23;;
16510;SDS011;8368;48.772;8.754;2023-12-07T01:19:08;7.67;;;5.30;;
16510;SDS011;8368;48.772;8.754;2023-12-07T01:21:34;9.90;;;5.47;;
16510;SDS011;8368;48.772;8.754;2023-12-07T01:23:59;11.50;;;5.87;;
16510;SDS011;8368;48.772;8.754;2023-12-07T01:26:25;8.87;;;5.07;;
16510;SDS011;8368;48.772;8.754;2023-12-07T01:28:50;10.33;;;4.87;;
16510;SDS011;8368;48.772;8.754;2023-12-07T01:31:16;7.77;;;5.30;;
16510;SDS011;8368;48.772;8.754;2023-12-07T01:33:42;7.87;;;5.33;;
16510;SDS011;8368;48.772;8.754;2023-12-07T01:36:08;8.07;;;5.37;;
16510;SDS011;8368;48.772;8.754;2023-12-07T01:38:33;7.83;;;5.77;;
16510;SDS011;8368;48.772;8.754;2023-12-07T01:40:59;7.93;;;4.97;;
16510;SDS011;8368;48.772;8.754;2023-12-07T01:43:25;6.83;;;4.80;;
16510;SDS011;8368;48.772;8.754;2023-12-07T01:45:50;7.63;;;5.13;;
16510;SDS011;8368;48.772;8.754;2023-12-07T01:48:18;8.07;;;5.80;;
16510;SDS011;8368;48.772;8.754;2023-12-07T01:50:45;10.33;;;6.63;;
16510;SDS011;8368;48.772;8.754;2023-12-07T01:53:11;9.90;;;6.23;;
16510;SDS011;8368;48.772;8.754;2023-12-07T01:55:37;11.07;;;6.40;;
16510;SDS011;8368;48.772;8.754;2023-12-07T01:58:03;9.87;;;6.47;;
16510;SDS011;8368;48.772;8.754;2023-12-07T02:00:29;9.50;;;6.20;;
16510;SDS011;8368;48.772;8.754;2023-12-07T02:02:55;10.40;;;5.80;;
16510;SDS011;8368;48.772;8.754;2023-12-07T02:05:21;9.10;;;6.17;;
16510;SDS011;8368;48.772;8.754;2023-12-07T02:07:48;8.40;;;5.27;;
16510;SDS011;8368;48.772;8.754;2023-12-07T02:10:14;6.43;;;5.43;;
16510;SDS011;8368;48.772;8.754;2023-12-07T02:12:40;7.43;;;5.03;;
16510;SDS011;8368;48.772;8.754;2023-12-07T02:15:06;9.77;;;5.83;;
16510;SDS011;8368;48.772;8.754;2023-12-07T02:17:33;6.37;;;5.20;;
16510;SDS011;8368;48.772;8.754;2023-12-07T02:22:39;8.70;;;5.20;;
16510;SDS011;8368;48.772;8.754;2023-12-07T02:25:07;8.03;;;5.37;;
16510;SDS011;8368;48.772;8.754;2023-12-07T02:30:03;8.70;;;5.93;;
16510;SDS011;8368;48.772;8.754;2023-12-07T02:32:30;10.37;;;6.10;;
16510;SDS011;8368;48.772;8.754;2023-12-07T02:34:55;8.73;;;5.83;;
16510;SDS011;8368;48.772;8.754;2023-12-07T02:37:21;7.27;;;4.73;;
16510;SDS011;8368;48.772;8.754;2023-12-07T02:39:49;6.20;;;4.70;;
16510;SDS011;8368;48.772;8.754;2023-12-07T02:42:16;8.20;;;4.70;;
16510;SDS011;8368;48.772;8.754;2023-12-07T02:44:42;7.97;;;5.17;;
16510;SDS011;8368;48.772;8.754;2023-12-07T02:47:08;10.20;;;5.60;;
16510;SDS011;8368;48.772;8.754;2023-12-07T02:49:33;5.53;;;4.50;;
16510;SDS011;8368;48.772;8.754;2023-12-07T02:51:59;8.57;;;5.23;;
16510;SDS011;8368;48.772;8.754;2023-12-07T02:54:24;5.83;;;4.73;;
16510;SDS011;8368;48.772;8.754;2023-12-07T02:56:50;8.87;;;4.60;;
16510;SDS011;8368;48.772;8.754;2023-12-07T02:59:15;5.23;;;4.43;;
16510;SDS011;8368;48.772;8.754;2023-12-07T03:01:41;11.17;;;5.37;;
16510;SDS011;8368;48.772;8.754;2023-12-07T03:04:06;5.77;;;4.37;;
16510;SDS011;8368;48.772;8.754;2023-12-07T03:06:32;9.77;;;5.40;;
16510;SDS011;8368;48.772;8.754;2023-12-07T03:08:57;5.33;;;4.47;;
16510;SDS011;8368;48.772;8.754;2023-12-07T03:11:23;5.60;;;4.47;;
16510;SDS011;8368;48.772;8.754;2023-12-07T03:13:49;7.67;;;4.63;;
16510;SDS011;8368;48.772;8.754;2023-12-07T03:16:14;6.70;;;4.73;;
16510;SDS011;8368;48.772;8.754;2023-12-07T03:18:40;10.60;;;4.83;;
16510;SDS011;8368;48.772;8.754;2023-12-07T03:21:06;7.57;;;4.93;;
16510;SDS011;8368;48.772;8.754;2023-12-07T03:23:32;6.63;;;4.87;;
16510;SDS011;8368;48.772;8.754;2023-12-07T03:25:57;6.57;;;4.80;;
16510;SDS011;8368;48.772;8.754;2023-12-07T03:28:23;7.73;;;4.73;;
16510;SDS011;8368;48.772;8.754;2023-12-07T03:30:48;8.20;;;4.97;;
16510;SDS011;8368;48.772;8.754;2023-12-07T03:33:14;7.80;;;4.87;;
16510;SDS011;8368;48.772;8.754;2023-12-07T03:35:39;6.00;;;4.60;;
16510;SDS011;8368;48.772;8.754;2023-12-07T03:38:05;8.07;;;4.83;;
16510;SDS011;8368;48.772;8.754;2023-12-07T03:40:31;7.10;;;4.73;;
16510;SDS011;8368;48.772;8.754;2023-12-07T03:42:57;7.73;;;4.57;;
16510;SDS011;8368;48.772;8.754;2023-12-07T03:45:23;7.43;;;4.33;;
16510;SDS011;8368;48.772;8.754;2023-12-07T03:47:48;7.57;;;4.50;;
16510;SDS011;8368;48.772;8.754;2023-12-07T03:50:14;9.00;;;4.43;;
16510;SDS011;8368;48.772;8.754;2023-12-07T03:52:40;8.17;;;5.47;;
16510;SDS011;8368;48.772;8.754;2023-12-07T03:55:05;7.80;;;4.90;;
16510;SDS011;8368;48.772;8.754;2023-12-07T03:57:31;7.10;;;4.97;;
16510;SDS011;8368;48.772;8.754;2023-12-07T03:59:57;7.57;;;5.43;;
16510;SDS011;8368;48.772;8.754;2023-12-07T04:02:22;6.37;;;4.87;;
16510;SDS011;8368;48.772;8.754;2023-12-07T04:04:48;8.53;;;5.53;;
16510;SDS011;8368;48.772;8.754;2023-12-07T04:07:13;8.63;;;5.43;;
16510;SDS011;8368;48.772;8.754;2023-12-07T04:09:39;8.87;;;5.90;;
16510;SDS011;8368;48.772;8.754;2023-12-07T04:12:04;11.67;;;6.37;;
16510;SDS011;8368;48.772;8.754;2023-12-07T04:14:30;10.53;;;6.93;;
16510;SDS011;8368;48.772;8.754;2023-12-07T04:16:56;11.50;;;6.10;;
16510;SDS011;8368;48.772;8.754;2023-12-07T04:19:21;8.87;;;5.53;;
16510;SDS011;8368;48.772;8.754;2023-12-07T04:21:47;10.57;;;6.37;;
16510;SDS011;8368;48.772;8.754;2023-12-07T04:24:12;8.57;;;6.03;;
16510;SDS011;8368;48.772;8.754;2023-12-07T04:26:38;8.93;;;5.90;;
16510;SDS011;8368;48.772;8.754;2023-12-07T04:29:03;11.13;;;6.57;;
16510;SDS011;8368;48.772;8.754;2023-12-07T04:31:29;9.97;;;5.63;;
16510;SDS011;8368;48.772;8.754;2023-12-07T04:33:54;7.83;;;5.57;;
16510;SDS011;8368;48.772;8.754;2023-12-07T04:36:20;9.53;;;5.93;;
16510;SDS011;8368;48.772;8.754;2023-12-07T04:38:45;10.43;;;6.07;;
16510;SDS011;8368;48.772;8.754;2023-12-07T04:41:11;9.43;;;5.97;;
16510;SDS011;8368;48.772;8.754;2023-12-07T04:43:36;10.17;;;6.00;;
16510;SDS011;8368;48.772;8.754;2023-12-07T04:46:02;12.20;;;5.50;;
16510;SDS011;8368;48.772;8.754;2023-12-07T04:48:28;9.30;;;5.77;;
16510;SDS011;8368;48.772;8.754;2023-12-07T04:50:54;10.47;;;5.90;;
16510;SDS011;8368;48.772;8.754;2023-12-07T04:53:19;9.13;;;5.90;;
16510;SDS011;8368;48.772;8.754;2023-12-07T04:55:45;10.77;;;5.87;;
16510;SDS011;8368;48.772;8.754;2023-12-07T04:58:15;10.50;;;5.93;;
16510;SDS011;8368;48.772;8.754;2023-12-07T05:00:40;11.93;;;5.87;;
16510;SDS011;8368;48.772;8.754;2023-12-07T05:03:06;6.30;;;5.20;;
16510;SDS011;8368;48.772;8.754;2023-12-07T05:05:31;8.53;;;5.60;;
16510;SDS011;8368;48.772;8.754;2023-12-07T05:07:57;10.67;;;5.90;;
16510;SDS011;8368;48.772;8.754;2023-12-07T05:10:22;11.27;;;5.80;;
16510;SDS011;8368;48.772;8.754;2023-12-07T05:12:48;8.37;;;5.40;;
16510;SDS011;8368;48.772;8.754;2023-12-07T05:15:13;8.93;;;5.50;;
16510;SDS011;8368;48.772;8.754;2023-12-07T05:17:39;9.13;;;5.37;;
16510;SDS011;8368;48.772;8.754;2023-12-07T05:20:05;10.40;;;5.70;;
16510;SDS011;8368;48.772;8.754;2023-12-07T05:22:32;7.57;;;5.87;;
16510;SDS011;8368;48.772;8.754;2023-12-07T05:24:57;9.57;;;5.90;;
16510;SDS011;8368;48.772;8.754;2023-12-07T05:27:23;7.03;;;5.17;;
16510;SDS011;8368;48.772;8.754;2023-12-07T05:29:48;8.50;;;5.43;;
16510;SDS011;8368;48.772;8.754;2023-12-07T05:32:14;11.83;;;6.43;;
16510;SDS011;8368;48.772;8.754;2023-12-07T05:34:39;9.20;;;5.60;;
16510;SDS011;8368;48.772;8.754;2023-12-07T05:37:05;10.30;;;6.00;;
16510;SDS011;8368;48.772;8.754;2023-12-07T05:39:31;11.73;;;6.37;;
16510;SDS011;8368;48.772;8.754;2023-12-07T05:41:56;12.40;;;7.17;;
16510;SDS011;8368;48.772;8.754;2023-12-07T05:44:22;15.13;;;7.67;;
16510;SDS011;8368;48.772;8.754;2023-12-07T05:46:48;12.17;;;7.13;;
16510;SDS011;8368;48.772;8.754;2023-12-07T05:49:14;8.70;;;5.80;;
16510;SDS011;8368;48.772;8.754;2023-12-07T05:51:40;12.90;;;6.20;;
16510;SDS011;8368;48.772;8.754;2023-12-07T05:54:05;9.50;;;5.90;;
16510;SDS011;8368;48.772;8.754;2023-12-07T05:56:31;9.63;;;5.83;;
16510;SDS011;8368;48.772;8.754;2023-12-07T05:58:56;8.80;;;6.10;;
16510;SDS011;8368;48.772;8.754;2023-12-07T06:01:22;8.47;;;5.53;;
16510;SDS011;8368;48.772;8.754;2023-12-07T06:03:49;9.33;;;6.50;;
16510;SDS011;8368;48.772;8.754;2023-12-07T06:06:14;9.17;;;5.60;;
16510;SDS011;8368;48.772;8.754;2023-12-07T06:08:40;8.87;;;6.00;;
16510;SDS011;8368;48.772;8.754;2023-12-07T06:11:06;11.70;;;6.83;;
16510;SDS011;8368;48.772;8.754;2023-12-07T06:13:32;12.53;;;6.17;;
16510;SDS011;8368;48.772;8.754;2023-12-07T06:15:58;8.03;;;6.07;;
16510;SDS011;8368;48.772;8.754;2023-12-07T06:18:24;10.93;;;6.43;;
16510;SDS011;8368;48.772;8.754;2023-12-07T06:20:50;10.93;;;6.20;;
16510;SDS011;8368;48.772;8.754;2023-12-07T06:23:15;8.73;;;5.57;;
16510;SDS011;8368;48.772;8.754;2023-12-07T06:25:41;12.00;;;6.00;;
16510;SDS011;8368;48.772;8.754;2023-12-07T06:28:06;12.43;;;5.97;;
16510;SDS011;8368;48.772;8.754;2023-12-07T06:30:32;8.80;;;5.10;;
16510;SDS011;8368;48.772;8.754;2023-12-07T06:32:58;10.27;;;5.93;;
16510;SDS011;8368;48.772;8.754;2023-12-07T06:35:24;10.10;;;6.43;;
16510;SDS011;8368;48.772;8.754;2023-12-07T06:37:49;11.70;;;6.83;;
16510;SDS011;8368;48.772;8.754;2023-12-07T06:40:15;11.80;;;5.90;;
16510;SDS011;8368;48.772;8.754;2023-12-07T06:42:40;9.73;;;5.90;;
16510;SDS011;8368;48.772;8.754;2023-12-07T06:45:06;10.43;;;6.13;;
16510;SDS011;8368;48.772;8.754;2023-12-07T06:47:36;7.97;;;5.43;;
16510;SDS011;8368;48.772;8.754;2023-12-07T06:50:03;15.97;;;6.57;;
16510;SDS011;8368;48.772;8.754;2023-12-07T06:52:29;8.50;;;5.60;;
16510;SDS011;8368;48.772;8.754;2023-12-07T06:54:55;11.23;;;5.33;;
16510;SDS011;8368;48.772;8.754;2023-12-07T06:57:21;9.80;;;5.93;;
16510;SDS011;8368;48.772;8.754;2023-12-07T06:59:46;11.93;;;5.67;;
16510;SDS011;8368;48.772;8.754;2023-12-07T07:02:12;9.33;;;5.17;;
16510;SDS011;8368;48.772;8.754;2023-12-07T07:04:38;8.40;;;4.70;;
16510;SDS011;8368;48.772;8.754;2023-12-07T07:07:03;7.90;;;5.13;;
16510;SDS011;8368;48.772;8.754;2023-12-07T07:09:29;10.20;;;5.90;;
16510;SDS011;8368;48.772;8.754;2023-12-07T07:11:55;9.50;;;5.10;;
16510;SDS011;8368;48.772;8.754;2023-12-07T07:14:20;9.63;;;5.83;;
16510;SDS011;8368;48.772;8.754;2023-12-07T07:16:46;8.70;;;6.00;;
16510;SDS011;8368;48.772;8.754;2023-12-07T07:19:14;8.37;;;5.57;;
16510;SDS011;8368;48.772;8.754;2023-12-07T07:21:41;12.83;;;5.87;;
16510;SDS011;8368;48.772;8.754;2023-12-07T07:24:07;9.27;;;5.73;;
16510;SDS011;8368;48.772;8.754;2023-12-07T07:26:33;10.90;;;5.93;;
16510;SDS011;8368;48.772;8.754;2023-12-07T07:28:58;7.67;;;5.03;;
16510;SDS011;8368;48.772;8.754;2023-12-07T07:31:24;9.93;;;5.37;;
16510;SDS011;8368;48.772;8.754;2023-12-07T07:33:50;8.10;;;5.70;;
16510;SDS011;8368;48.772;8.754;2023-12-07T07:36:15;7.17;;;5.13;;
16510;SDS011;8368;48.772;8.754;2023-12-07T07:38:43;11.10;;;5.10;;
16510;SDS011;8368;48.772;8.754;2023-12-07T07:41:09;10.30;;;5.30;;
16510;SDS011;8368;48.772;8.754;2023-12-07T07:43:36;9.30;;;5.93;;
16510;SDS011;8368;48.772;8.754;2023-12-07T07:46:02;8.33;;;5.50;;
16510;SDS011;8368;48.772;8.754;2023-12-07T07:48:29;8.77;;;5.37;;
16510;SDS011;8368;48.772;8.754;2023-12-07T07:50:54;10.83;;;6.37;;
16510;SDS011;8368;48.772;8.754;2023-12-07T07:53:20;8.43;;;5.53;;
16510;SDS011;8368;48.772;8.754;2023-12-07T07:55:45;10.47;;;5.23;;
16510;SDS011;8368;48.772;8.754;2023-12-07T07:58:11;8.10;;;5.20;;
16510;SDS011;8368;48.772;8.754;2023-12-07T08:00:36;7.50;;;5.73;;
16510;SDS011;8368;48.772;8.754;2023-12-07T08:03:02;9.90;;;6.27;;
16510;SDS011;8368;48.772;8.754;2023-12-07T08:05:28;9.13;;;6.00;;
16510;SDS011;8368;48.772;8.754;2023-12-07T08:07:53;11.83;;;6.93;;
16510;SDS011;8368;48.772;8.754;2023-12-07T08:10:19;10.50;;;6.57;;
16510;SDS011;8368;48.772;8.754;2023-12-07T08:12:45;9.67;;;6.27;;
16510;SDS011;8368;48.772;8.754;2023-12-07T08:15:11;13.57;;;6.90;;
16510;SDS011;8368;48.772;8.754;2023-12-07T08:17:37;9.27;;;6.00;;
16510;SDS011;8368;48.772;8.754;2023-12-07T08:20:06;9.10;;;6.30;;
16510;SDS011;8368;48.772;8.754;2023-12-07T08:22:32;10.17;;;6.17;;
16510;SDS011;8368;48.772;8.754;2023-12-07T08:24:58;9.80;;;5.17;;
16510;SDS011;8368;48.772;8.754;2023-12-07T08:27:25;10.63;;;5.60;;
16510;SDS011;8368;48.772;8.754;2023-12-07T08:29:50;8.87;;;5.10;;
16510;SDS011;8368;48.772;8.754;2023-12-07T08:32:16;10.20;;;5.87;;
16510;SDS011;8368;48.772;8.754;2023-12-07T08:34:44;11.87;;;6.00;;
16510;SDS011;8368;48.772;8.754;2023-12-07T08:37:10;6.93;;;5.60;;
16510;SDS011;8368;48.772;8.754;2023-12-07T08:39:35;8.90;;;5.73;;
16510;SDS011;8368;48.772;8.754;2023-12-07T08:42:01;9.53;;;5.50;;
16510;SDS011;8368;48.772;8.754;2023-12-07T08:44:27;7.87;;;5.23;;
16510;SDS011;8368;48.772;8.754;2023-12-07T08:46:52;10.70;;;5.87;;
16510;SDS011;8368;48.772;8.754;2023-12-07T08:49:18;8.63;;;5.37;;
16510;SDS011;8368;48.772;8.754;2023-12-07T08:51:43;7.53;;;5.33;;
16510;SDS011;8368;48.772;8.754;2023-12-07T08:54:10;8.43;;;5.13;;
16510;SDS011;8368;48.772;8.754;2023-12-07T08:56:35;12.10;;;6.43;;
16510;SDS011;8368;48.772;8.754;2023-12-07T08:59:01;11.50;;;5.90;;
16510;SDS011;8368;48.772;8.754;2023-12-07T09:01:27;8.30;;;5.93;;
16510;SDS011;8368;48.772;8.754;2023-12-07T09:03:53;11.10;;;5.53;;
16510;SDS011;8368;48.772;8.754;2023-12-07T09:06:19;5.70;;;4.90;;
16510;SDS011;8368;48.772;8.754;2023-12-07T09:08:44;8.10;;;5.47;;
16510;SDS011;8368;48.772;8.754;2023-12-07T09:11:11;8.30;;;5.43;;
16510;SDS011;8368;48.772;8.754;2023-12-07T09:13:37;9.77;;;5.83;;
16510;SDS011;8368;48.772;8.754;2023-12-07T09:16:02;10.47;;;5.90;;
16510;SDS011;8368;48.772;8.754;2023-12-07T09:18:28;8.07;;;5.57;;
16510;SDS011;8368;48.772;8.754;2023-12-07T09:20:54;9.77;;;5.73;;
16510;SDS011;8368;48.772;8.754;2023-12-07T09:23:20;8.90;;;5.00;;
16510;SDS011;8368;48.772;8.754;2023-12-07T09:25:45;13.37;;;5.30;;
16510;SDS011;8368;48.772;8.754;2023-12-07T09:28:11;12.30;;;5.40;;
16510;SDS011;8368;48.772;8.754;2023-12-07T09:30:36;9.37;;;5.90;;
16510;SDS011;8368;48.772;8.754;2023-12-07T09:33:02;10.90;;;5.43;;
16510;SDS011;8368;48.772;8.754;2023-12-07T09:35:28;8.43;;;5.47;;
16510;SDS011;8368;48.772;8.754;2023-12-07T09:37:53;9.30;;;6.50;;
16510;SDS011;8368;48.772;8.754;2023-12-07T09:40:20;11.57;;;6.13;;
16510;SDS011;8368;48.772;8.754;2023-12-07T09:42:47;10.80;;;6.17;;
16510;SDS011;8368;48.772;8.754;2023-12-07T09:45:13;10.30;;;6.03;;
16510;SDS011;8368;48.772;8.754;2023-12-07T09:47:41;8.30;;;5.73;;
16510;SDS011;8368;48.772;8.754;2023-12-07T09:50:07;9.83;;;6.00;;
16510;SDS011;8368;48.772;8.754;2023-12-07T09:52:34;8.87;;;5.53;;
16510;SDS011;8368;48.772;8.754;2023-12-07T09:55:02;8.00;;;5.73;;
16510;SDS011;8368;48.772;8.754;2023-12-07T09:57:28;6.53;;;5.40;;
16510;SDS011;8368;48.772;8.754;2023-12-07T09:59:54;9.27;;;5.77;;
16510;SDS011;8368;48.772;8.754;2023-12-07T10:02:20;8.73;;;6.20;;
16510;SDS011;8368;48.772;8.754;2023-12-07T10:04:47;7.60;;;5.57;;
16510;SDS011;8368;48.772;8.754;2023-12-07T10:07:13;7.30;;;5.67;;
16510;SDS011;8368;48.772;8.754;2023-12-07T10:09:39;7.80;;;5.37;;
16510;SDS011;8368;48.772;8.754;2023-12-07T10:12:08;9.13;;;6.07;;
16510;SDS011;8368;48.772;8.754;2023-12-07T10:14:34;16.80;;;9.30;;
16510;SDS011;8368;48.772;8.754;2023-12-07T10:16:59;12.27;;;7.30;;
16510;SDS011;8368;48.772;8.754;2023-12-07T10:19:25;10.07;;;6.77;;
16510;SDS011;8368;48.772;8.754;2023-12-07T10:21:52;11.03;;;6.33;;
16510;SDS011;8368;48.772;8.754;2023-12-07T10:24:22;12.77;;;6.13;;
16510;SDS011;8368;48.772;8.754;2023-12-07T10:26:51;13.30;;;7.33;;
16510;SDS011;8368;48.772;8.754;2023-12-07T10:29:17;21.67;;;11.40;;
16510;SDS011;8368;48.772;8.754;2023-12-07T10:31:44;16.10;;;8.90;;
16510;SDS011;8368;48.772;8.754;2023-12-07T10:34:11;10.90;;;7.70;;
16510;SDS011;8368;48.772;8.754;2023-12-07T10:36:37;10.70;;;7.27;;
16510;SDS011;8368;48.772;8.754;2023-12-07T10:39:03;8.63;;;6.00;;
16510;SDS011;8368;48.772;8.754;2023-12-07T10:41:31;10.53;;;5.93;;
16510;SDS011;8368;48.772;8.754;2023-12-07T10:44:01;23.90;;;15.07;;
16510;SDS011;8368;48.772;8.754;2023-12-07T10:46:28;15.93;;;10.43;;
16510;SDS011;8368;48.772;8.754;2023-12-07T10:49:01;15.60;;;10.20;;
16510;SDS011;8368;48.772;8.754;2023-12-07T10:53:58;8.97;;;6.53;;
16510;SDS011;8368;48.772;8.754;2023-12-07T10:56:28;8.13;;;5.50;;
16510;SDS011;8368;48.772;8.754;2023-12-07T10:58:57;7.10;;;6.13;;
16510;SDS011;8368;48.772;8.754;2023-12-07T11:01:23;12.53;;;7.83;;
16510;SDS011;8368;48.772;8.754;2023-12-07T11:03:50;10.67;;;6.03;;
16510;SDS011;8368;48.772;8.754;2023-12-07T11:06:18;8.70;;;5.37;;
16510;SDS011;8368;48.772;8.754;2023-12-07T11:08:50;8.47;;;5.23;;
16510;SDS011;8368;48.772;8.754;2023-12-07T11:14:16;8.63;;;5.50;;
16510;SDS011;8368;48.772;8.754;2023-12-07T11:16:43;6.70;;;5.30;;
16510;SDS011;8368;48.772;8.754;2023-12-07T11:21:55;4.47;;;4.07;;
16510;SDS011;8368;48.772;8.754;2023-12-07T11:24:21;5.03;;;4.33;;
16510;SDS011;8368;48.772;8.754;2023-12-07T11:26:48;6.17;;;4.60;;
16510;SDS011;8368;48.772;8.754;2023-12-07T11:29:23;5.07;;;4.33;;
16510;SDS011;8368;48.772;8.754;2023-12-07T11:31:50;4.67;;;4.07;;
16510;SDS011;8368;48.772;8.754;2023-12-07T11:37:05;4.73;;;4.23;;
16510;SDS011;8368;48.772;8.754;2023-12-07T11:39:35;5.03;;;4.53;;
16510;SDS011;8368;48.772;8.754;2023-12-07T11:42:17;6.43;;;5.37;;
16510;SDS011;8368;48.772;8.754;2023-12-07T11:44:48;7.03;;;5.10;;
16510;SDS011;8368;48.772;8.754;2023-12-07T11:47:18;7.30;;;5.00;;
16510;SDS011;8368;48.772;8.754;2023-12-07T11:49:45;6.23;;;4.67;;
16510;SDS011;8368;48.772;8.754;2023-12-07T11:52:20;5.53;;;4.80;;
16510;SDS011;8368;48.772;8.754;2023-12-07T11:54:46;4.50;;;4.10;;
16510;SDS011;8368;48.772;8.754;2023-12-07T11:57:13;4.73;;;4.23;;
16510;SDS011;8368;48.772;8.754;2023-12-07T11:59:40;7.67;;;4.53;;
16510;SDS011;8368;48.772;8.754;2023-12-07T12:02:06;7.13;;;4.77;;
16510;SDS011;8368;48.772;8.754;2023-12-07T12:04:32;7.37;;;4.93;;
16510;SDS011;8368;48.772;8.754;2023-12-07T12:06:57;7.90;;;5.53;;
16510;SDS011;8368;48.772;8.754;2023-12-07T12:09:26;6.43;;;5.77;;
16510;SDS011;8368;48.772;8.754;2023-12-07T12:11:51;6.93;;;5.47;;
16510;SDS011;8368;48.772;8.754;2023-12-07T12:14:17;5.73;;;5.23;;
16510;SDS011;8368;48.772;8.754;2023-12-07T12:16:44;7.90;;;5.47;;
16510;SDS011;8368;48.772;8.754;2023-12-07T12:19:10;5.00;;;4.50;;
16510;SDS011;8368;48.772;8.754;2023-12-07T12:21:36;6.23;;;5.00;;
16510;SDS011;8368;48.772;8.754;2023-12-07T12:24:05;5.03;;;4.20;;
16510;SDS011;8368;48.772;8.754;2023-12-07T12:26:34;3.67;;;3.37;;
16510;SDS011;8368;48.772;8.754;2023-12-07T12:29:04;6.53;;;4.20;;
16510;SDS011;8368;48.772;8.754;2023-12-07T12:31:34;4.93;;;3.60;;
16510;SDS011;8368;48.772;8.754;2023-12-07T12:34:03;4.43;;;3.40;;
16510;SDS011;8368;48.772;8.754;2023-12-07T12:36:32;3.30;;;3.10;;
16510;SDS011;8368;48.772;8.754;2023-12-07T12:38:57;3.17;;;2.90;;
16510;SDS011;8368;48.772;8.754;2023-12-07T12:41:23;4.97;;;3.23;;
16510;SDS011;8368;48.772;8.754;2023-12-07T12:43:49;4.63;;;3.03;;
16510;SDS011;8368;48.772;8.754;2023-12-07T12:46:16;4.10;;;3.33;;
16510;SDS011;8368;48.772;8.754;2023-12-07T12:49:00;5.90;;;3.50;;
16510;SDS011;8368;48.772;8.754;2023-12-07T12:51:27;4.93;;;2.93;;
16510;SDS011;8368;48.772;8.754;2023-12-07T12:53:55;2.97;;;2.77;;
16510;SDS011;8368;48.772;8.754;2023-12-07T12:56:21;3.33;;;3.03;;
16510;SDS011;8368;48.772;8.754;2023-12-07T12:58:51;4.43;;;3.13;;
16510;SDS011;8368;48.772;8.754;2023-12-07T13:01:18;3.30;;;3.03;;
16510;SDS011;8368;48.772;8.754;2023-12-07T13:03:44;4.73;;;3.07;;
16510;SDS011;8368;48.772;8.754;2023-12-07T13:06:13;3.10;;;2.80;;
16510;SDS011;8368;48.772;8.754;2023-12-07T13:08:40;6.23;;;3.53;;
16510;SDS011;8368;48.772;8.754;2023-12-07T13:11:06;4.33;;;3.10;;
16510;SDS011;8368;48.772;8.754;2023-12-07T13:13:32;6.77;;;5.50;;
16510;SDS011;8368;48.772;8.754;2023-12-07T13:15:58;7.50;;;4.40;;
16510;SDS011;8368;48.772;8.754;2023-12-07T13:18:23;4.50;;;3.00;;
16510;SDS011;8368;48.772;8.754;2023-12-07T13:20:48;3.33;;;3.00;;
16510;SDS011;8368;48.772;8.754;2023-12-07T13:23:14;3.83;;;3.53;;
16510;SDS011;8368;48.772;8.754;2023-12-07T13:25:39;3.67;;;3.33;;
16510;SDS011;8368;48.772;8.754;2023-12-07T13:28:06;2.87;;;2.67;;
16510;SDS011;8368;48.772;8.754;2023-12-07T13:30:33;2.97;;;2.77;;
16510;SDS011;8368;48.772;8.754;2023-12-07T13:33:00;3.63;;;3.27;;
16510;SDS011;8368;48.772;8.754;2023-12-07T13:35:26;3.70;;;3.10;;
16510;SDS011;8368;48.772;8.754;2023-12-07T13:37:52;3.40;;;3.10;;
16510;SDS011;8368;48.772;8.754;2023-12-07T13:40:17;3.77;;;3.10;;
16510;SDS011;8368;48.772;8.754;2023-12-07T13:42:43;3.10;;;2.70;;
16510;SDS011;8368;48.772;8.754;2023-12-07T13:45:08;3.23;;;3.00;;
16510;SDS011;8368;48.772;8.754;2023-12-07T13:47:34;3.37;;;3.17;;
16510;SDS011;8368;48.772;8.754;2023-12-07T13:50:02;3.30;;;3.00;;
16510;SDS011;8368;48.772;8.754;2023-12-07T13:52:29;3.57;;;3.00;;
16510;SDS011;8368;48.772;8.754;2023-12-07T13:54:56;7.03;;;3.47;;
16510;SDS011;8368;48.772;8.754;2023-12-07T13:57:22;3.37;;;3.07;;
16510;SDS011;8368;48.772;8.754;2023-12-07T13:59:51;5.17;;;3.53;;
16510;SDS011;8368;48.772;8.754;2023-12-07T14:02:17;6.07;;;3.40;;
16510;SDS011;8368;48.772;8.754;2023-12-07T14:04:43;4.63;;;3.60;;
16510;SDS011;8368;48.772;8.754;2023-12-07T14:07:13;3.20;;;2.90;;
16510;SDS011;8368;48.772;8.754;2023-12-07T14:09:40;5.47;;;4.00;;
16510;SDS011;8368;48.772;8.754;2023-12-07T14:12:08;4.63;;;3.90;;
16510;SDS011;8368;48.772;8.754;2023-12-07T14:14:35;4.47;;;3.97;;
16510;SDS011;8368;48.772;8.754;2023-12-07T14:17:01;5.37;;;4.20;;
16510;SDS011;8368;48.772;8.754;2023-12-07T14:19:28;4.20;;;3.70;;
16510;SDS011;8368;48.772;8.754;2023-12-07T14:21:54;4.30;;;3.60;;
16510;SDS011;8368;48.772;8.754;2023-12-07T14:24:20;5.23;;;3.60;;
16510;SDS011;8368;48.772;8.754;2023-12-07T14:26:46;4.70;;;3.53;;
16510;SDS011;8368;48.772;8.754;2023-12-07T14:29:12;4.23;;;3.83;;
16510;SDS011;8368;48.772;8.754;2023-12-07T14:31:40;7.30;;;4.63;;
16510;SDS011;8368;48.772;8.754;2023-12-07T14:34:06;4.40;;;4.00;;
16510;SDS011;8368;48.772;8.754;2023-12-07T14:36:32;5.40;;;3.63;;
16510;SDS011;8368;48.772;8.754;2023-12-07T14:38:57;6.17;;;3.70;;
16510;SDS011;8368;48.772;8.754;2023-12-07T14:41:23;5.00;;;3.73;;
16510;SDS011;8368;48.772;8.754;2023-12-07T14:43:48;6.13;;;3.90;;
16510;SDS011;8368;48.772;8.754;2023-12-07T14:46:14;4.77;;;4.07;;
16510;SDS011;8368;48.772;8.754;2023-12-07T14:48:39;8.57;;;5.40;;
16510;SDS011;8368;48.772;8.754;2023-12-07T14:51:05;10.47;;;5.50;;
16510;SDS011;8368;48.772;8.754;2023-12-07T14:53:31;6.17;;;4.80;;
16510;SDS011;8368;48.772;8.754;2023-12-07T14:55:58;6.97;;;4.80;;
16510;SDS011;8368;48.772;8.754;2023-12-07T14:58:24;6.53;;;5.20;;
16510;SDS011;8368;48.772;8.754;2023-12-07T15:00:50;6.87;;;5.03;;
16510;SDS011;8368;48.772;8.754;2023-12-07T15:03:16;10.03;;;6.77;;
16510;SDS011;8368;48.772;8.754;2023-12-07T15:05:43;7.20;;;5.43;;
16510;SDS011;8368;48.772;8.754;2023-12-07T15:08:09;6.80;;;4.87;;